sensor_id;sensor_type;location;lat;lon;timestamp;pressure;altitude;pressure_sealevel;temperature;humidity
8416;BME280;4245;42.120;24.732;2023-05-09T00:01:05;99650.03;;;13.67;100.00
8416;BME280;4245;42.120;24.732;2023-05-09T00:03:32;99641.56;;;13.73;100.00
8416;BME280;4245;42.120;24.732;2023-05-09T00:05:59;99644.44;;;13.70;100.00
8416;BME280;4245;42.120;24.732;2023-05-09T00:08:27;99645.78;;;13.76;100.00
8416;BME280;4245;42.120;24.732;2023-05-09T00:10:55;99642.56;;;13.83;100.00
8416;BME280;4245;42.120;24.732;2023-05-09T00:13:22;99644.13;;;13.86;100.00
8416;BME280;4245;42.120;24.732;2023-05-09T00:15:49;99647.16;;;13.81;100.00
8416;BME280;4245;42.120;24.732;2023-05-09T00:18:18;99645.47;;;13.91;100.00
8416;BME280;4245;42.120;24.732;2023-05-09T00:20:46;99648.50;;;13.87;100.00
8416;BME280;4245;42.120;24.732;2023-05-09T00:23:13;99640.25;;;13.79;100.00
8416;BME280;4245;42.120;24.732;2023-05-09T00:25:41;99641.59;;;13.84;100.00
8416;BME280;4245;42.120;24.732;2023-05-09T00:28:09;99645.34;;;13.82;100.00
8416;BME280;4245;42.120;24.732;2023-05-09T00:30:36;99650.06;;;13.78;100.00
8416;BME280;4245;42.120;24.732;2023-05-09T00:33:03;99644.84;;;13.77;100.00
8416;BME280;4245;42.120;24.732;2023-05-09T00:35:30;99643.88;;;13.78;100.00
8416;BME280;4245;42.120;24.732;2023-05-09T00:37:57;99654.44;;;13.79;100.00
8416;BME280;4245;42.120;24.732;2023-05-09T00:40:24;99647.91;;;13.83;100.00
8416;BME280;4245;42.120;24.732;2023-05-09T00:42:51;99658.81;;;13.91;100.00
8416;BME280;4245;42.120;24.732;2023-05-09T00:45:21;99664.63;;;13.85;100.00
8416;BME280;4245;42.120;24.732;2023-05-09T00:47:48;99660.25;;;13.73;100.00
8416;BME280;4245;42.120;24.732;2023-05-09T00:50:15;99660.97;;;13.75;100.00
8416;BME280;4245;42.120;24.732;2023-05-09T00:52:42;99663.28;;;13.80;100.00
8416;BME280;4245;42.120;24.732;2023-05-09T00:55:10;99671.28;;;13.80;100.00
8416;BME280;4245;42.120;24.732;2023-05-09T00:57:37;99665.72;;;13.83;100.00
8416;BME280;4245;42.120;24.732;2023-05-09T01:00:05;99663.66;;;13.86;100.00
8416;BME280;4245;42.120;24.732;2023-05-09T01:02:38;99659.78;;;13.79;100.00
8416;BME280;4245;42.120;24.732;2023-05-09T01:05:06;99662.94;;;13.84;100.00
8416;BME280;4245;42.120;24.732;2023-05-09T01:07:37;99669.25;;;13.83;100.00
8416;BME280;4245;42.120;24.732;2023-05-09T01:10:14;99661.72;;;13.77;100.00
8416;BME280;4245;42.120;24.732;2023-05-09T01:12:48;99675.69;;;13.92;100.00
8416;BME280;4245;42.120;24.732;2023-05-09T01:15:21;99675.31;;;13.85;100.00
8416;BME280;4245;42.120;24.732;2023-05-09T01:17:54;99672.63;;;13.85;100.00
8416;BME280;4245;42.120;24.732;2023-05-09T01:20:27;99670.31;;;13.81;100.00
8416;BME280;4245;42.120;24.732;2023-05-09T01:23:09;99676.53;;;13.81;100.00
8416;BME280;4245;42.120;24.732;2023-05-09T01:25:48;99674.94;;;13.79;100.00
8416;BME280;4245;42.120;24.732;2023-05-09T01:28:33;99679.09;;;13.83;100.00
8416;BME280;4245;42.120;24.732;2023-05-09T01:31:03;99675.78;;;13.68;100.00
8416;BME280;4245;42.120;24.732;2023-05-09T01:33:33;99674.09;;;13.78;100.00
8416;BME280;4245;42.120;24.732;2023-05-09T01:36:04;99671.19;;;13.81;100.00
8416;BME280;4245;42.120;24.732;2023-05-09T01:38:35;99670.78;;;13.75;100.00
8416;BME280;4245;42.120;24.732;2023-05-09T01:41:05;99665.69;;;13.72;100.00
8416;BME280;4245;42.120;24.732;2023-05-09T01:43:34;99668.31;;;13.61;100.00
8416;BME280;4245;42.120;24.732;2023-05-09T01:46:04;99669.19;;;13.61;100.00
8416;BME280;4245;42.120;24.732;2023-05-09T01:48:33;99670.63;;;13.54;100.00
8416;BME280;4245;42.120;24.732;2023-05-09T01:51:02;99672.56;;;13.52;100.00
8416;BME280;4245;42.120;24.732;2023-05-09T01:53:31;99668.81;;;13.55;100.00
8416;BME280;4245;42.120;24.732;2023-05-09T01:56:02;99675.22;;;13.52;100.00
8416;BME280;4245;42.120;24.732;2023-05-09T01:58:31;99683.19;;;13.41;100.00
8416;BME280;4245;42.120;24.732;2023-05-09T02:00:59;99681.72;;;13.37;100.00
8416;BME280;4245;42.120;24.732;2023-05-09T02:03:28;99686.94;;;13.38;100.00
8416;BME280;4245;42.120;24.732;2023-05-09T02:05:55;99688.25;;;13.33;100.00
8416;BME280;4245;42.120;24.732;2023-05-09T02:08:23;99688.03;;;13.36;100.00
8416;BME280;4245;42.120;24.732;2023-05-09T02:10:50;99682.72;;;13.47;100.00
8416;BME280;4245;42.120;24.732;2023-05-09T02:13:17;99691.44;;;13.38;100.00
8416;BME280;4245;42.120;24.732;2023-05-09T02:15:44;99683.88;;;13.32;100.00
8416;BME280;4245;42.120;24.732;2023-05-09T02:18:12;99685.59;;;13.33;100.00
8416;BME280;4245;42.120;24.732;2023-05-09T02:20:40;99689.00;;;13.35;100.00
8416;BME280;4245;42.120;24.732;2023-05-09T02:23:07;99687.06;;;13.37;100.00
8416;BME280;4245;42.120;24.732;2023-05-09T02:25:34;99684.72;;;13.32;100.00
8416;BME280;4245;42.120;24.732;2023-05-09T02:28:02;99687.19;;;13.35;100.00
8416;BME280;4245;42.120;24.732;2023-05-09T02:30:32;99682.97;;;13.44;100.00
8416;BME280;4245;42.120;24.732;2023-05-09T02:33:03;99681.38;;;13.41;100.00
8416;BME280;4245;42.120;24.732;2023-05-09T02:35:31;99692.28;;;13.38;100.00
8416;BME280;4245;42.120;24.732;2023-05-09T02:38:00;99693.59;;;13.33;100.00
8416;BME280;4245;42.120;24.732;2023-05-09T02:40:29;99701.16;;;13.39;100.00
8416;BME280;4245;42.120;24.732;2023-05-09T02:42:56;99702.97;;;13.38;100.00
8416;BME280;4245;42.120;24.732;2023-05-09T02:45:23;99704.53;;;13.41;100.00
8416;BME280;4245;42.120;24.732;2023-05-09T02:47:50;99704.41;;;13.42;100.00
8416;BME280;4245;42.120;24.732;2023-05-09T02:50:17;99711.81;;;13.39;100.00
8416;BME280;4245;42.120;24.732;2023-05-09T02:52:44;99707.34;;;13.39;100.00
8416;BME280;4245;42.120;24.732;2023-05-09T02:55:12;99700.91;;;13.42;100.00
8416;BME280;4245;42.120;24.732;2023-05-09T02:57:39;99703.19;;;13.35;100.00
8416;BME280;4245;42.120;24.732;2023-05-09T03:00:07;99703.72;;;13.40;100.00
8416;BME280;4245;42.120;24.732;2023-05-09T03:02:35;99694.56;;;13.32;100.00
8416;BME280;4245;42.120;24.732;2023-05-09T03:05:02;99700.63;;;13.34;100.00
8416;BME280;4245;42.120;24.732;2023-05-09T03:07:29;99700.91;;;13.42;100.00
8416;BME280;4245;42.120;24.732;2023-05-09T03:09:56;99707.09;;;13.42;100.00
8416;BME280;4245;42.120;24.732;2023-05-09T03:12:24;99719.22;;;13.46;100.00
8416;BME280;4245;42.120;24.732;2023-05-09T03:14:51;99714.47;;;13.39;100.00
8416;BME280;4245;42.120;24.732;2023-05-09T03:17:18;99717.84;;;13.30;100.00
8416;BME280;4245;42.120;24.732;2023-05-09T03:19:46;99724.06;;;13.41;100.00
8416;BME280;4245;42.120;24.732;2023-05-09T03:22:13;99722.59;;;13.37;100.00
8416;BME280;4245;42.120;24.732;2023-05-09T03:24:40;99729.88;;;13.35;100.00
8416;BME280;4245;42.120;24.732;2023-05-09T03:27:08;99730.50;;;13.39;100.00
8416;BME280;4245;42.120;24.732;2023-05-09T03:29:36;99735.72;;;13.40;100.00
8416;BME280;4245;42.120;24.732;2023-05-09T03:32:03;99738.50;;;13.39;100.00
8416;BME280;4245;42.120;24.732;2023-05-09T03:34:30;99733.78;;;13.42;100.00
8416;BME280;4245;42.120;24.732;2023-05-09T03:36:58;99743.16;;;13.48;100.00
8416;BME280;4245;42.120;24.732;2023-05-09T03:39:25;99736.09;;;13.47;100.00
8416;BME280;4245;42.120;24.732;2023-05-09T03:41:52;99745.22;;;13.56;100.00
8416;BME280;4245;42.120;24.732;2023-05-09T03:44:19;99748.13;;;13.53;100.00
8416;BME280;4245;42.120;24.732;2023-05-09T03:46:47;99749.78;;;13.42;100.00
8416;BME280;4245;42.120;24.732;2023-05-09T03:49:14;99751.50;;;13.43;100.00
8416;BME280;4245;42.120;24.732;2023-05-09T03:51:41;99753.81;;;13.48;100.00
8416;BME280;4245;42.120;24.732;2023-05-09T03:54:08;99749.09;;;13.52;100.00
8416;BME280;4245;42.120;24.732;2023-05-09T03:56:35;99752.97;;;13.47;100.00
8416;BME280;4245;42.120;24.732;2023-05-09T03:59:02;99750.31;;;13.47;100.00
8416;BME280;4245;42.120;24.732;2023-05-09T04:01:29;99751.50;;;13.43;100.00
8416;BME280;4245;42.120;24.732;2023-05-09T04:03:57;99753.81;;;13.48;100.00
8416;BME280;4245;42.120;24.732;2023-05-09T04:06:24;99749.78;;;13.42;100.00
8416;BME280;4245;42.120;24.732;2023-05-09T04:08:51;99748.13;;;13.53;100.00
8416;BME280;4245;42.120;24.732;2023-05-09T04:11:18;99746.44;;;13.52;100.00
8416;BME280;4245;42.120;24.732;2023-05-09T04:13:46;99748.53;;;13.59;100.00
8416;BME280;4245;42.120;24.732;2023-05-09T04:16:13;99754.59;;;13.61;100.00
8416;BME280;4245;42.120;24.732;2023-05-09T04:18:40;99765.53;;;13.58;100.00
8416;BME280;4245;42.120;24.732;2023-05-09T04:21:08;99759.50;;;13.67;100.00
8416;BME280;4245;42.120;24.732;2023-05-09T04:23:35;99754.75;;;13.60;100.00
8416;BME280;4245;42.120;24.732;2023-05-09T04:26:03;99762.41;;;13.64;100.00
8416;BME280;4245;42.120;24.732;2023-05-09T04:28:30;99757.31;;;13.72;100.00
8416;BME280;4245;42.120;24.732;2023-05-09T04:30:57;99764.75;;;13.80;100.00
8416;BME280;4245;42.120;24.732;2023-05-09T04:33:24;99761.81;;;13.72;100.00
8416;BME280;4245;42.120;24.732;2023-05-09T04:35:53;99757.75;;;13.90;100.00
8416;BME280;4245;42.120;24.732;2023-05-09T04:38:21;99767.81;;;13.86;100.00
8416;BME280;4245;42.120;24.732;2023-05-09T04:40:48;99762.38;;;13.88;100.00
8416;BME280;4245;42.120;24.732;2023-05-09T04:43:16;99761.16;;;13.92;100.00
8416;BME280;4245;42.120;24.732;2023-05-09T04:45:43;99768.91;;;13.95;100.00
8416;BME280;4245;42.120;24.732;2023-05-09T04:48:11;99759.22;;;13.94;100.00
8416;BME280;4245;42.120;24.732;2023-05-09T04:50:37;99764.44;;;13.96;100.00
8416;BME280;4245;42.120;24.732;2023-05-09T04:53:06;99766.38;;;13.93;100.00
8416;BME280;4245;42.120;24.732;2023-05-09T04:55:34;99769.25;;;14.25;100.00
8416;BME280;4245;42.120;24.732;2023-05-09T04:58:02;99773.81;;;14.36;100.00
8416;BME280;4245;42.120;24.732;2023-05-09T05:00:29;99776.75;;;14.66;100.00
8416;BME280;4245;42.120;24.732;2023-05-09T05:02:56;99781.72;;;14.71;100.00
8416;BME280;4245;42.120;24.732;2023-05-09T05:05:22;99785.25;;;14.94;100.00
8416;BME280;4245;42.120;24.732;2023-05-09T05:07:49;99786.22;;;15.04;100.00
8416;BME280;4245;42.120;24.732;2023-05-09T05:10:17;99785.63;;;15.00;100.00
8416;BME280;4245;42.120;24.732;2023-05-09T05:12:46;99786.78;;;15.18;100.00
8416;BME280;4245;42.120;24.732;2023-05-09T05:15:13;99793.97;;;15.29;100.00
8416;BME280;4245;42.120;24.732;2023-05-09T05:17:40;99795.50;;;15.43;100.00
8416;BME280;4245;42.120;24.732;2023-05-09T05:20:07;99794.00;;;15.50;100.00
8416;BME280;4245;42.120;24.732;2023-05-09T05:22:35;99797.06;;;15.45;100.00
8416;BME280;4245;42.120;24.732;2023-05-09T05:25:02;99792.97;;;15.52;100.00
8416;BME280;4245;42.120;24.732;2023-05-09T05:27:29;99791.16;;;15.74;100.00
8416;BME280;4245;42.120;24.732;2023-05-09T05:29:58;99796.09;;;15.89;100.00
8416;BME280;4245;42.120;24.732;2023-05-09T05:32:25;99804.75;;;16.14;100.00
8416;BME280;4245;42.120;24.732;2023-05-09T05:34:52;99799.59;;;16.01;100.00
8416;BME280;4245;42.120;24.732;2023-05-09T05:37:19;99812.00;;;16.43;100.00
8416;BME280;4245;42.120;24.732;2023-05-09T05:39:46;99804.81;;;16.23;100.00
8416;BME280;4245;42.120;24.732;2023-05-09T05:42:13;99806.03;;;15.98;100.00
8416;BME280;4245;42.120;24.732;2023-05-09T05:44:40;99810.22;;;15.91;100.00
8416;BME280;4245;42.120;24.732;2023-05-09T05:47:08;99809.00;;;15.63;100.00
8416;BME280;4245;42.120;24.732;2023-05-09T05:49:35;99803.16;;;15.58;100.00
8416;BME280;4245;42.120;24.732;2023-05-09T05:52:03;99810.75;;;16.47;100.00
8416;BME280;4245;42.120;24.732;2023-05-09T05:54:30;99815.34;;;16.77;100.00
8416;BME280;4245;42.120;24.732;2023-05-09T05:56:57;99816.53;;;16.64;100.00
8416;BME280;4245;42.120;24.732;2023-05-09T05:59:23;99812.94;;;16.33;100.00
8416;BME280;4245;42.120;24.732;2023-05-09T06:01:50;99818.22;;;15.71;100.00
8416;BME280;4245;42.120;24.732;2023-05-09T06:04:19;99816.09;;;15.31;100.00
8416;BME280;4245;42.120;24.732;2023-05-09T06:06:46;99817.09;;;15.08;100.00
8416;BME280;4245;42.120;24.732;2023-05-09T06:09:13;99809.19;;;14.84;100.00
8416;BME280;4245;42.120;24.732;2023-05-09T06:11:40;99795.34;;;14.57;100.00
8416;BME280;4245;42.120;24.732;2023-05-09T06:14:07;99804.69;;;14.51;100.00
8416;BME280;4245;42.120;24.732;2023-05-09T06:16:34;99798.09;;;14.44;100.00
8416;BME280;4245;42.120;24.732;2023-05-09T06:19:01;99809.94;;;14.29;100.00
8416;BME280;4245;42.120;24.732;2023-05-09T06:21:29;99801.50;;;14.46;100.00
8416;BME280;4245;42.120;24.732;2023-05-09T06:23:58;99804.19;;;14.57;100.00
8416;BME280;4245;42.120;24.732;2023-05-09T06:26:27;99806.53;;;14.62;100.00
8416;BME280;4245;42.120;24.732;2023-05-09T06:28:54;99802.25;;;14.59;100.00
8416;BME280;4245;42.120;24.732;2023-05-09T06:31:21;99807.34;;;14.51;100.00
8416;BME280;4245;42.120;24.732;2023-05-09T06:33:48;99804.53;;;14.42;100.00
8416;BME280;4245;42.120;24.732;2023-05-09T06:36:15;99803.38;;;14.33;100.00
8416;BME280;4245;42.120;24.732;2023-05-09T06:38:43;99808.88;;;14.31;100.00
8416;BME280;4245;42.120;24.732;2023-05-09T06:41:10;99809.19;;;14.16;100.00
8416;BME280;4245;42.120;24.732;2023-05-09T06:43:37;99804.84;;;14.26;100.00
8416;BME280;4245;42.120;24.732;2023-05-09T06:46:04;99805.03;;;14.12;100.00
8416;BME280;4245;42.120;24.732;2023-05-09T06:48:31;99801.13;;;14.05;100.00
8416;BME280;4245;42.120;24.732;2023-05-09T06:50:58;99801.41;;;14.13;100.00
8416;BME280;4245;42.120;24.732;2023-05-09T06:53:25;99800.75;;;13.98;100.00
8416;BME280;4245;42.120;24.732;2023-05-09T06:55:53;99805.50;;;14.06;100.00
8416;BME280;4245;42.120;24.732;2023-05-09T06:58:20;99809.13;;;14.05;100.00
8416;BME280;4245;42.120;24.732;2023-05-09T07:00:47;99813.06;;;14.12;100.00
8416;BME280;4245;42.120;24.732;2023-05-09T07:03:14;99822.78;;;14.13;100.00
8416;BME280;4245;42.120;24.732;2023-05-09T07:05:41;99816.00;;;14.20;100.00
8416;BME280;4245;42.120;24.732;2023-05-09T07:08:08;99822.31;;;14.19;100.00
8416;BME280;4245;42.120;24.732;2023-05-09T07:10:35;99818.31;;;14.13;100.00
8416;BME280;4245;42.120;24.732;2023-05-09T07:13:04;99815.63;;;14.13;100.00
8416;BME280;4245;42.120;24.732;2023-05-09T07:15:31;99827.53;;;14.20;100.00
8416;BME280;4245;42.120;24.732;2023-05-09T07:17:58;99830.19;;;14.20;100.00
8416;BME280;4245;42.120;24.732;2023-05-09T07:20:25;99825.66;;;14.10;100.00
8416;BME280;4245;42.120;24.732;2023-05-09T07:22:52;99831.41;;;14.16;100.00
8416;BME280;4245;42.120;24.732;2023-05-09T07:25:19;99824.34;;;14.15;100.00
8416;BME280;4245;42.120;24.732;2023-05-09T07:27:46;99824.34;;;14.15;100.00
8416;BME280;4245;42.120;24.732;2023-05-09T07:30:14;99821.34;;;14.20;100.00
8416;BME280;4245;42.120;24.732;2023-05-09T07:32:41;99819.06;;;14.26;100.00
8416;BME280;4245;42.120;24.732;2023-05-09T07:35:08;99825.97;;;14.29;100.00
8416;BME280;4245;42.120;24.732;2023-05-09T07:37:35;99822.44;;;14.28;100.00
8416;BME280;4245;42.120;24.732;2023-05-09T07:40:03;99824.41;;;14.26;100.00
8416;BME280;4245;42.120;24.732;2023-05-09T07:42:30;99824.03;;;14.31;100.00
8416;BME280;4245;42.120;24.732;2023-05-09T07:44:58;99819.66;;;14.30;100.00
8416;BME280;4245;42.120;24.732;2023-05-09T07:47:26;99821.25;;;14.32;100.00
8416;BME280;4245;42.120;24.732;2023-05-09T07:49:53;99824.34;;;14.39;100.00
8416;BME280;4245;42.120;24.732;2023-05-09T07:52:20;99824.63;;;14.23;100.00
8416;BME280;4245;42.120;24.732;2023-05-09T07:54:47;99826.47;;;14.23;100.00
8416;BME280;4245;42.120;24.732;2023-05-09T07:57:14;99823.31;;;14.29;100.00
8416;BME280;4245;42.120;24.732;2023-05-09T07:59:41;99832.25;;;14.41;100.00
8416;BME280;4245;42.120;24.732;2023-05-09T08:02:08;99832.94;;;14.43;100.00
8416;BME280;4245;42.120;24.732;2023-05-09T08:04:38;99822.03;;;14.46;100.00
8416;BME280;4245;42.120;24.732;2023-05-09T08:07:05;99828.75;;;14.51;100.00
8416;BME280;4245;42.120;24.732;2023-05-09T08:09:33;99827.06;;;14.61;100.00
8416;BME280;4245;42.120;24.732;2023-05-09T08:12:00;99828.50;;;14.76;100.00
8416;BME280;4245;42.120;24.732;2023-05-09T08:14:27;99828.41;;;15.00;100.00
8416;BME280;4245;42.120;24.732;2023-05-09T08:16:54;99832.03;;;15.10;100.00
8416;BME280;4245;42.120;24.732;2023-05-09T08:19:21;99835.81;;;15.08;100.00
8416;BME280;4245;42.120;24.732;2023-05-09T08:21:52;99836.78;;;15.18;100.00
8416;BME280;4245;42.120;24.732;2023-05-09T08:24:20;99838.75;;;15.05;100.00
8416;BME280;4245;42.120;24.732;2023-05-09T08:26:46;99838.38;;;15.09;100.00
8416;BME280;4245;42.120;24.732;2023-05-09T08:29:13;99836.31;;;14.91;100.00
8416;BME280;4245;42.120;24.732;2023-05-09T08:31:40;99826.22;;;14.94;100.00
8416;BME280;4245;42.120;24.732;2023-05-09T08:34:07;99841.31;;;14.95;100.00
8416;BME280;4245;42.120;24.732;2023-05-09T08:36:34;99832.91;;;15.00;100.00
8416;BME280;4245;42.120;24.732;2023-05-09T08:39:03;99837.75;;;14.84;100.00
8416;BME280;4245;42.120;24.732;2023-05-09T08:41:32;99838.03;;;14.81;100.00
8416;BME280;4245;42.120;24.732;2023-05-09T08:44:00;99828.41;;;14.78;100.00
8416;BME280;4245;42.120;24.732;2023-05-09T08:46:35;99829.84;;;14.82;100.00
8416;BME280;4245;42.120;24.732;2023-05-09T08:49:04;99842.63;;;14.90;100.00
8416;BME280;4245;42.120;24.732;2023-05-09T08:51:31;99837.03;;;14.82;100.00
8416;BME280;4245;42.120;24.732;2023-05-09T08:53:59;99839.94;;;14.78;100.00
8416;BME280;4245;42.120;24.732;2023-05-09T08:56:28;99831.44;;;14.73;100.00
8416;BME280;4245;42.120;24.732;2023-05-09T08:58:55;99830.94;;;14.68;100.00
8416;BME280;4245;42.120;24.732;2023-05-09T09:01:23;99827.91;;;14.62;100.00
8416;BME280;4245;42.120;24.732;2023-05-09T09:03:51;99832.84;;;14.44;100.00
8416;BME280;4245;42.120;24.732;2023-05-09T09:06:19;99835.53;;;14.44;100.00
8416;BME280;4245;42.120;24.732;2023-05-09T09:08:47;99831.50;;;14.39;100.00
8416;BME280;4245;42.120;24.732;2023-05-09T09:11:15;99831.91;;;14.56;100.00
8416;BME280;4245;42.120;24.732;2023-05-09T09:13:45;99834.59;;;14.56;100.00
8416;BME280;4245;42.120;24.732;2023-05-09T09:16:17;99834.22;;;14.61;100.00
8416;BME280;4245;42.120;24.732;2023-05-09T09:18:45;99828.38;;;14.56;100.00
8416;BME280;4245;42.120;24.732;2023-05-09T09:21:14;99830.22;;;14.66;100.00
8416;BME280;4245;42.120;24.732;2023-05-09T09:23:42;99818.91;;;14.74;100.00
8416;BME280;4245;42.120;24.732;2023-05-09T09:26:12;99831.44;;;15.07;100.00
8416;BME280;4245;42.120;24.732;2023-05-09T09:28:39;99833.25;;;15.29;100.00
8416;BME280;4245;42.120;24.732;2023-05-09T09:31:23;99838.50;;;15.19;100.00
8416;BME280;4245;42.120;24.732;2023-05-09T09:33:50;99843.84;;;15.19;100.00
8416;BME280;4245;42.120;24.732;2023-05-09T09:36:25;99842.16;;;14.96;100.00
8416;BME280;4245;42.120;24.732;2023-05-09T09:38:55;99836.69;;;14.86;100.00
8416;BME280;4245;42.120;24.732;2023-05-09T09:41:29;99835.09;;;14.95;100.00
8416;BME280;4245;42.120;24.732;2023-05-09T09:43:57;99830.94;;;15.02;100.00
8416;BME280;4245;42.120;24.732;2023-05-09T09:46:25;99845.19;;;15.13;100.00
8416;BME280;4245;42.120;24.732;2023-05-09T09:48:52;99830.56;;;15.29;100.00
8416;BME280;4245;42.120;24.732;2023-05-09T09:51:25;99825.44;;;15.37;100.00
8416;BME280;4245;42.120;24.732;2023-05-09T09:53:53;99827.00;;;15.50;100.00
8416;BME280;4245;42.120;24.732;2023-05-09T09:56:20;99826.88;;;15.63;100.00
8416;BME280;4245;42.120;24.732;2023-05-09T09:58:47;99826.84;;;15.74;100.00
8416;BME280;4245;42.120;24.732;2023-05-09T10:01:14;99825.19;;;15.94;100.00
8416;BME280;4245;42.120;24.732;2023-05-09T10:03:44;99834.19;;;15.93;100.00
8416;BME280;4245;42.120;24.732;2023-05-09T10:06:13;99830.69;;;16.13;100.00
8416;BME280;4245;42.120;24.732;2023-05-09T10:08:43;99831.91;;;16.20;100.00
8416;BME280;4245;42.120;24.732;2023-05-09T10:11:11;99836.28;;;16.21;100.00
8416;BME280;4245;42.120;24.732;2023-05-09T10:13:38;99839.72;;;16.12;100.00
8416;BME280;4245;42.120;24.732;2023-05-09T10:16:07;99835.75;;;16.27;100.00
8416;BME280;4245;42.120;24.732;2023-05-09T10:18:34;99833.84;;;16.39;100.00
8416;BME280;4245;42.120;24.732;2023-05-09T10:21:04;99845.16;;;16.42;100.00
8416;BME280;4245;42.120;24.732;2023-05-09T10:23:36;99841.63;;;16.42;100.00
8416;BME280;4245;42.120;24.732;2023-05-09T10:26:07;99838.81;;;16.23;100.00
8416;BME280;4245;42.120;24.732;2023-05-09T10:28:39;99847.66;;;16.02;100.00
8416;BME280;4245;42.120;24.732;2023-05-09T10:31:11;99839.22;;;15.86;100.00
8416;BME280;4245;42.120;24.732;2023-05-09T10:33:44;99839.91;;;15.68;100.00
8416;BME280;4245;42.120;24.732;2023-05-09T10:36:16;99840.50;;;15.60;100.00
8416;BME280;4245;42.120;24.732;2023-05-09T10:38:45;99839.44;;;15.62;100.00
8416;BME280;4245;42.120;24.732;2023-05-09T10:41:13;99852.47;;;15.56;100.00
8416;BME280;4245;42.120;24.732;2023-05-09T10:43:42;99851.75;;;15.54;100.00
8416;BME280;4245;42.120;24.732;2023-05-09T10:46:09;99849.31;;;15.51;100.00
8416;BME280;4245;42.120;24.732;2023-05-09T10:48:37;99848.41;;;15.50;100.00
8416;BME280;4245;42.120;24.732;2023-05-09T10:51:06;99860.34;;;15.46;100.00
8416;BME280;4245;42.120;24.732;2023-05-09T10:53:41;99851.56;;;15.44;100.00
8416;BME280;4245;42.120;24.732;2023-05-09T10:56:21;99846.72;;;15.49;100.00
8416;BME280;4245;42.120;24.732;2023-05-09T10:58:48;99856.09;;;15.55;100.00
8416;BME280;4245;42.120;24.732;2023-05-09T11:01:27;99845.88;;;15.60;100.00
8416;BME280;4245;42.120;24.732;2023-05-09T11:03:55;99842.72;;;15.55;100.00
8416;BME280;4245;42.120;24.732;2023-05-09T11:06:46;99841.25;;;15.62;100.00
8416;BME280;4245;42.120;24.732;2023-05-09T11:09:28;99844.53;;;15.54;100.00
8416;BME280;4245;42.120;24.732;2023-05-09T11:12:00;99840.31;;;15.52;100.00
8416;BME280;4245;42.120;24.732;2023-05-09T11:14:39;99833.38;;;15.92;100.00
8416;BME280;4245;42.120;24.732;2023-05-09T11:17:07;99836.66;;;16.17;100.00
8416;BME280;4245;42.120;24.732;2023-05-09T11:19:36;99827.19;;;16.54;100.00
8416;BME280;4245;42.120;24.732;2023-05-09T11:22:14;99831.66;;;16.65;100.00
8416;BME280;4245;42.120;24.732;2023-05-09T11:24:45;99829.13;;;16.52;100.00
8416;BME280;4245;42.120;24.732;2023-05-09T11:27:18;99829.22;;;16.41;100.00
8416;BME280;4245;42.120;24.732;2023-05-09T11:29:49;99831.63;;;16.23;100.00
8416;BME280;4245;42.120;24.732;2023-05-09T11:32:16;99829.34;;;16.19;100.00
8416;BME280;4245;42.120;24.732;2023-05-09T11:34:44;99835.63;;;16.29;100.00
8416;BME280;4245;42.120;24.732;2023-05-09T11:37:13;99830.66;;;16.24;100.00
8416;BME280;4245;42.120;24.732;2023-05-09T11:40:00;99824.00;;;16.60;100.00
8416;BME280;4245;42.120;24.732;2023-05-09T11:42:30;99836.41;;;16.61;100.00
8416;BME280;4245;42.120;24.732;2023-05-09T11:44:57;99830.59;;;16.77;100.00
8416;BME280;4245;42.120;24.732;2023-05-09T11:47:25;99831.38;;;16.88;100.00
8416;BME280;4245;42.120;24.732;2023-05-09T11:49:53;99835.75;;;16.48;100.00
8416;BME280;4245;42.120;24.732;2023-05-09T11:52:20;99833.41;;;16.55;100.00
8416;BME280;4245;42.120;24.732;2023-05-09T11:54:48;99834.31;;;16.44;100.00
8416;BME280;4245;42.120;24.732;2023-05-09T11:57:16;99825.19;;;16.56;100.00
8416;BME280;4245;42.120;24.732;2023-05-09T11:59:43;99830.88;;;16.74;100.00
8416;BME280;4245;42.120;24.732;2023-05-09T12:02:10;99823.44;;;16.87;100.00
8416;BME280;4245;42.120;24.732;2023-05-09T12:04:37;99831.78;;;16.84;100.00
8416;BME280;4245;42.120;24.732;2023-05-09T12:07:04;99843.34;;;16.84;100.00
8416;BME280;4245;42.120;24.732;2023-05-09T12:09:33;99831.78;;;16.84;100.00
8416;BME280;4245;42.120;24.732;2023-05-09T12:12:07;99832.47;;;17.16;100.00
8416;BME280;4245;42.120;24.732;2023-05-09T12:14:37;99824.41;;;17.16;100.00
8416;BME280;4245;42.120;24.732;2023-05-09T12:17:05;99828.78;;;17.17;100.00
8416;BME280;4245;42.120;24.732;2023-05-09T12:19:32;99823.84;;;17.13;100.00
8416;BME280;4245;42.120;24.732;2023-05-09T12:22:01;99828.47;;;17.11;100.00
8416;BME280;4245;42.120;24.732;2023-05-09T12:24:28;99817.63;;;16.82;100.00
8416;BME280;4245;42.120;24.732;2023-05-09T12:26:58;99813.09;;;16.82;100.00
8416;BME280;4245;42.120;24.732;2023-05-09T12:29:25;99811.28;;;16.83;100.00
8416;BME280;4245;42.120;24.732;2023-05-09T12:31:54;99803.28;;;16.51;100.00
8416;BME280;4245;42.120;24.732;2023-05-09T12:34:21;99797.97;;;16.30;100.00
8416;BME280;4245;42.120;24.732;2023-05-09T12:36:48;99799.34;;;16.45;100.00
8416;BME280;4245;42.120;24.732;2023-05-09T12:39:16;99795.22;;;16.62;100.00
8416;BME280;4245;42.120;24.732;2023-05-09T12:41:47;99798.44;;;16.86;100.00
8416;BME280;4245;42.120;24.732;2023-05-09T12:44:18;99796.56;;;17.08;100.00
8416;BME280;4245;42.120;24.732;2023-05-09T12:46:54;99792.56;;;17.02;100.00
8416;BME280;4245;42.120;24.732;2023-05-09T12:49:22;99793.38;;;16.93;100.00
8416;BME280;4245;42.120;24.732;2023-05-09T12:51:49;99791.72;;;17.02;100.00
8416;BME280;4245;42.120;24.732;2023-05-09T12:54:19;99787.13;;;17.23;100.00
8416;BME280;4245;42.120;24.732;2023-05-09T12:56:47;99788.63;;;17.06;100.00
8416;BME280;4245;42.120;24.732;2023-05-09T12:59:20;99781.31;;;17.18;100.00
8416;BME280;4245;42.120;24.732;2023-05-09T13:01:51;99779.34;;;17.29;100.00
8416;BME280;4245;42.120;24.732;2023-05-09T13:04:20;99783.47;;;17.43;100.00
8416;BME280;4245;42.120;24.732;2023-05-09T13:06:48;99776.44;;;17.42;100.00